sensor_id;sensor_type;location;lat;lon;timestamp;temperature;humidity
506;DHT22;551;48.524;9.056;2022-12-29T00:02:00;4.30;1.00
506;DHT22;551;48.524;9.056;2022-12-29T00:04:25;4.30;1.00
506;DHT22;551;48.524;9.056;2022-12-29T00:06:52;4.40;1.00
506;DHT22;551;48.524;9.056;2022-12-29T00:09:18;4.40;1.00
506;DHT22;551;48.524;9.056;2022-12-29T00:11:44;4.50;1.00
506;DHT22;551;48.524;9.056;2022-12-29T00:14:10;4.60;1.00
506;DHT22;551;48.524;9.056;2022-12-29T00:16:55;4.70;1.00
506;DHT22;551;48.524;9.056;2022-12-29T00:19:21;4.90;1.00
506;DHT22;551;48.524;9.056;2022-12-29T00:22:05;4.90;1.00
506;DHT22;551;48.524;9.056;2022-12-29T00:24:49;4.90;1.00
506;DHT22;551;48.524;9.056;2022-12-29T00:27:28;5.00;1.00
506;DHT22;551;48.524;9.056;2022-12-29T00:30:17;4.90;1.00
506;DHT22;551;48.524;9.056;2022-12-29T00:33:16;5.00;1.00
506;DHT22;551;48.524;9.056;2022-12-29T00:36:28;4.80;1.00
506;DHT22;551;48.524;9.056;2022-12-29T00:39:00;4.70;1.00
506;DHT22;551;48.524;9.056;2022-12-29T00:41:44;4.70;1.00
506;DHT22;551;48.524;9.056;2022-12-29T00:44:28;4.70;1.00
506;DHT22;551;48.524;9.056;2022-12-29T00:46:53;4.70;1.00
506;DHT22;551;48.524;9.056;2022-12-29T00:49:19;4.80;1.00
506;DHT22;551;48.524;9.056;2022-12-29T00:51:59;4.70;1.00
506;DHT22;551;48.524;9.056;2022-12-29T00:54:25;4.70;1.00
506;DHT22;551;48.524;9.056;2022-12-29T00:56:52;4.60;1.00
506;DHT22;551;48.524;9.056;2022-12-29T00:59:18;4.70;1.00
506;DHT22;551;48.524;9.056;2022-12-29T01:01:45;4.70;1.00
506;DHT22;551;48.524;9.056;2022-12-29T01:04:11;4.70;1.00
506;DHT22;551;48.524;9.056;2022-12-29T01:06:38;4.70;1.00
506;DHT22;551;48.524;9.056;2022-12-29T01:09:04;4.70;1.00
506;DHT22;551;48.524;9.056;2022-12-29T01:11:49;4.70;1.00
506;DHT22;551;48.524;9.056;2022-12-29T01:14:15;4.70;1.00
506;DHT22;551;48.524;9.056;2022-12-29T01:16:41;4.80;1.00
506;DHT22;551;48.524;9.056;2022-12-29T01:19:06;4.80;1.00
506;DHT22;551;48.524;9.056;2022-12-29T01:21:32;4.80;1.00
506;DHT22;551;48.524;9.056;2022-12-29T01:23:57;4.90;1.00
506;DHT22;551;48.524;9.056;2022-12-29T01:26:23;4.90;1.00
506;DHT22;551;48.524;9.056;2022-12-29T01:28:48;4.90;1.00
506;DHT22;551;48.524;9.056;2022-12-29T01:31:15;4.90;1.00
506;DHT22;551;48.524;9.056;2022-12-29T01:33:41;5.00;1.00
506;DHT22;551;48.524;9.056;2022-12-29T01:36:09;5.00;1.00
506;DHT22;551;48.524;9.056;2022-12-29T01:38:36;5.00;1.00
506;DHT22;551;48.524;9.056;2022-12-29T01:41:03;5.00;1.00
506;DHT22;551;48.524;9.056;2022-12-29T01:43:46;5.00;1.00
506;DHT22;551;48.524;9.056;2022-12-29T01:48:53;5.00;1.00
506;DHT22;551;48.524;9.056;2022-12-29T01:51:22;5.00;1.00
506;DHT22;551;48.524;9.056;2022-12-29T01:53:48;5.10;1.00
506;DHT22;551;48.524;9.056;2022-12-29T01:56:16;5.10;1.00
506;DHT22;551;48.524;9.056;2022-12-29T01:58:47;5.10;1.00
506;DHT22;551;48.524;9.056;2022-12-29T02:01:15;5.10;1.00
506;DHT22;551;48.524;9.056;2022-12-29T02:03:42;5.20;1.00
506;DHT22;551;48.524;9.056;2022-12-29T02:06:20;5.20;1.00
506;DHT22;551;48.524;9.056;2022-12-29T02:08:49;5.30;1.00
506;DHT22;551;48.524;9.056;2022-12-29T02:11:16;5.40;1.00
506;DHT22;551;48.524;9.056;2022-12-29T02:13:41;5.40;1.00
506;DHT22;551;48.524;9.056;2022-12-29T02:36:07;5.60;1.00
506;DHT22;551;48.524;9.056;2022-12-29T02:38:51;5.60;1.00
506;DHT22;551;48.524;9.056;2022-12-29T02:50:26;5.90;1.00
506;DHT22;551;48.524;9.056;2022-12-29T02:53:04;6.10;1.00
506;DHT22;551;48.524;9.056;2022-12-29T02:55:30;6.40;1.00
506;DHT22;551;48.524;9.056;2022-12-29T03:00:37;7.10;1.00
506;DHT22;551;48.524;9.056;2022-12-29T03:03:22;7.50;1.00
506;DHT22;551;48.524;9.056;2022-12-29T03:06:13;7.80;1.00
506;DHT22;551;48.524;9.056;2022-12-29T03:11:26;8.40;1.00
506;DHT22;551;48.524;9.056;2022-12-29T03:14:23;8.70;1.00
506;DHT22;551;48.524;9.056;2022-12-29T03:17:24;9.20;1.00
506;DHT22;551;48.524;9.056;2022-12-29T03:19:52;9.60;1.00
506;DHT22;551;48.524;9.056;2022-12-29T03:22:25;9.80;1.00
506;DHT22;551;48.524;9.056;2022-12-29T03:27:34;10.20;1.00
506;DHT22;551;48.524;9.056;2022-12-29T03:30:04;10.40;1.00
506;DHT22;551;48.524;9.056;2022-12-29T03:32:36;10.50;1.00
506;DHT22;551;48.524;9.056;2022-12-29T03:35:04;10.60;1.00
506;DHT22;551;48.524;9.056;2022-12-29T03:37:35;10.70;1.00
506;DHT22;551;48.524;9.056;2022-12-29T03:40:03;10.70;1.00
506;DHT22;551;48.524;9.056;2022-12-29T03:42:32;10.70;1.00
506;DHT22;551;48.524;9.056;2022-12-29T03:44:58;10.80;1.00
506;DHT22;551;48.524;9.056;2022-12-29T03:47:24;10.80;1.00
506;DHT22;551;48.524;9.056;2022-12-29T03:49:50;10.90;1.00
506;DHT22;551;48.524;9.056;2022-12-29T03:52:16;10.90;1.00
506;DHT22;551;48.524;9.056;2022-12-29T03:54:41;10.90;1.00
506;DHT22;551;48.524;9.056;2022-12-29T03:57:08;10.90;1.00
506;DHT22;551;48.524;9.056;2022-12-29T03:59:34;10.90;1.00
506;DHT22;551;48.524;9.056;2022-12-29T04:01:59;10.80;1.00
506;DHT22;551;48.524;9.056;2022-12-29T04:04:25;10.80;1.00
506;DHT22;551;48.524;9.056;2022-12-29T04:06:50;10.80;1.00
506;DHT22;551;48.524;9.056;2022-12-29T04:09:16;10.70;1.00
506;DHT22;551;48.524;9.056;2022-12-29T04:11:41;10.70;1.00
506;DHT22;551;48.524;9.056;2022-12-29T04:14:07;10.70;1.00
506;DHT22;551;48.524;9.056;2022-12-29T04:16:32;10.80;1.00
506;DHT22;551;48.524;9.056;2022-12-29T04:19:04;10.70;1.00
506;DHT22;551;48.524;9.056;2022-12-29T04:21:29;10.60;1.00
506;DHT22;551;48.524;9.056;2022-12-29T04:23:55;10.60;1.00
506;DHT22;551;48.524;9.056;2022-12-29T04:26:20;10.60;1.00
506;DHT22;551;48.524;9.056;2022-12-29T04:28:47;10.50;1.00
506;DHT22;551;48.524;9.056;2022-12-29T04:31:13;10.50;1.00
506;DHT22;551;48.524;9.056;2022-12-29T04:33:38;10.50;1.00
506;DHT22;551;48.524;9.056;2022-12-29T04:36:04;10.50;1.00
506;DHT22;551;48.524;9.056;2022-12-29T04:38:29;10.50;1.00
506;DHT22;551;48.524;9.056;2022-12-29T04:40:55;10.50;1.00
506;DHT22;551;48.524;9.056;2022-12-29T04:43:24;10.50;1.00
506;DHT22;551;48.524;9.056;2022-12-29T04:45:49;10.50;1.00
506;DHT22;551;48.524;9.056;2022-12-29T04:48:15;10.50;1.00
506;DHT22;551;48.524;9.056;2022-12-29T04:57:18;10.70;1.00
506;DHT22;551;48.524;9.056;2022-12-29T04:59:43;10.70;1.00
506;DHT22;551;48.524;9.056;2022-12-29T05:02:09;10.70;1.00
506;DHT22;551;48.524;9.056;2022-12-29T05:04:34;10.70;1.00
506;DHT22;551;48.524;9.056;2022-12-29T05:07:00;10.80;1.00
506;DHT22;551;48.524;9.056;2022-12-29T05:09:25;10.80;1.00
506;DHT22;551;48.524;9.056;2022-12-29T05:11:51;10.90;1.00
506;DHT22;551;48.524;9.056;2022-12-29T05:14:16;10.90;1.00
506;DHT22;551;48.524;9.056;2022-12-29T05:16:42;10.80;1.00
506;DHT22;551;48.524;9.056;2022-12-29T05:19:07;10.80;1.00
506;DHT22;551;48.524;9.056;2022-12-29T05:21:33;10.80;1.00
506;DHT22;551;48.524;9.056;2022-12-29T05:23:58;10.70;1.00
506;DHT22;551;48.524;9.056;2022-12-29T05:26:24;10.70;1.00
506;DHT22;551;48.524;9.056;2022-12-29T05:28:49;10.60;1.00
506;DHT22;551;48.524;9.056;2022-12-29T05:31:15;10.50;1.00
506;DHT22;551;48.524;9.056;2022-12-29T05:33:40;10.50;1.00
506;DHT22;551;48.524;9.056;2022-12-29T05:36:07;10.40;1.00
506;DHT22;551;48.524;9.056;2022-12-29T05:38:33;10.30;1.00
506;DHT22;551;48.524;9.056;2022-12-29T05:40:58;10.30;1.00
506;DHT22;551;48.524;9.056;2022-12-29T05:43:24;10.30;1.00
506;DHT22;551;48.524;9.056;2022-12-29T05:45:49;10.30;1.00
506;DHT22;551;48.524;9.056;2022-12-29T05:48:15;10.40;1.00
506;DHT22;551;48.524;9.056;2022-12-29T05:50:40;10.50;1.00
506;DHT22;551;48.524;9.056;2022-12-29T05:53:06;10.50;1.00
506;DHT22;551;48.524;9.056;2022-12-29T05:55:32;10.60;1.00
506;DHT22;551;48.524;9.056;2022-12-29T05:57:58;10.70;1.00
506;DHT22;551;48.524;9.056;2022-12-29T06:00:23;10.70;1.00
506;DHT22;551;48.524;9.056;2022-12-29T06:02:49;10.80;1.00
506;DHT22;551;48.524;9.056;2022-12-29T06:05:14;10.80;1.00
506;DHT22;551;48.524;9.056;2022-12-29T06:07:40;10.80;1.00
506;DHT22;551;48.524;9.056;2022-12-29T06:10:06;10.80;1.00
506;DHT22;551;48.524;9.056;2022-12-29T06:12:32;10.90;1.00
506;DHT22;551;48.524;9.056;2022-12-29T06:14:57;10.80;1.00
506;DHT22;551;48.524;9.056;2022-12-29T06:17:23;10.90;1.00
506;DHT22;551;48.524;9.056;2022-12-29T06:19:48;10.80;1.00
506;DHT22;551;48.524;9.056;2022-12-29T06:22:14;10.80;1.00
506;DHT22;551;48.524;9.056;2022-12-29T06:24:39;10.80;1.00
506;DHT22;551;48.524;9.056;2022-12-29T06:27:05;10.80;1.00
506;DHT22;551;48.524;9.056;2022-12-29T06:29:30;10.80;1.00
506;DHT22;551;48.524;9.056;2022-12-29T06:31:56;10.70;1.00
506;DHT22;551;48.524;9.056;2022-12-29T06:34:24;10.80;1.00
506;DHT22;551;48.524;9.056;2022-12-29T06:36:50;10.90;1.00
506;DHT22;551;48.524;9.056;2022-12-29T06:39:15;10.90;1.00
506;DHT22;551;48.524;9.056;2022-12-29T06:41:41;11.00;1.00
506;DHT22;551;48.524;9.056;2022-12-29T06:44:06;11.10;1.00
506;DHT22;551;48.524;9.056;2022-12-29T06:46:32;11.10;1.00
506;DHT22;551;48.524;9.056;2022-12-29T06:48:58;11.10;1.00
506;DHT22;551;48.524;9.056;2022-12-29T06:51:23;11.00;1.00
506;DHT22;551;48.524;9.056;2022-12-29T06:53:49;11.10;1.00
506;DHT22;551;48.524;9.056;2022-12-29T06:56:14;11.10;1.00
506;DHT22;551;48.524;9.056;2022-12-29T06:58:40;11.10;1.00
506;DHT22;551;48.524;9.056;2022-12-29T07:01:05;11.20;1.00
506;DHT22;551;48.524;9.056;2022-12-29T07:03:31;11.20;1.00
506;DHT22;551;48.524;9.056;2022-12-29T07:05:56;11.30;1.00
506;DHT22;551;48.524;9.056;2022-12-29T07:08:23;11.30;1.00
506;DHT22;551;48.524;9.056;2022-12-29T07:10:49;11.30;1.00
506;DHT22;551;48.524;9.056;2022-12-29T07:13:14;11.30;1.00
506;DHT22;551;48.524;9.056;2022-12-29T07:15:40;11.30;1.00
506;DHT22;551;48.524;9.056;2022-12-29T07:18:05;11.40;1.00
506;DHT22;551;48.524;9.056;2022-12-29T07:20:31;11.30;1.00
506;DHT22;551;48.524;9.056;2022-12-29T07:22:57;11.30;1.00
506;DHT22;551;48.524;9.056;2022-12-29T07:25:23;11.30;1.00
506;DHT22;551;48.524;9.056;2022-12-29T07:27:49;11.30;1.00
506;DHT22;551;48.524;9.056;2022-12-29T07:30:15;11.10;1.00
506;DHT22;551;48.524;9.056;2022-12-29T07:32:41;11.20;1.00
506;DHT22;551;48.524;9.056;2022-12-29T07:35:07;11.20;1.00
506;DHT22;551;48.524;9.056;2022-12-29T07:37:33;11.20;1.00
506;DHT22;551;48.524;9.056;2022-12-29T07:39:58;11.30;1.00
506;DHT22;551;48.524;9.056;2022-12-29T07:42:24;11.30;1.00
506;DHT22;551;48.524;9.056;2022-12-29T07:44:50;11.30;1.00
506;DHT22;551;48.524;9.056;2022-12-29T07:47:15;11.30;1.00
506;DHT22;551;48.524;9.056;2022-12-29T07:49:41;11.40;1.00
506;DHT22;551;48.524;9.056;2022-12-29T07:52:06;11.50;1.00
506;DHT22;551;48.524;9.056;2022-12-29T07:54:31;11.50;1.00
506;DHT22;551;48.524;9.056;2022-12-29T07:56:57;11.50;1.00
506;DHT22;551;48.524;9.056;2022-12-29T07:59:25;11.50;1.00
506;DHT22;551;48.524;9.056;2022-12-29T08:01:50;11.50;1.00
506;DHT22;551;48.524;9.056;2022-12-29T08:04:16;11.50;1.00
506;DHT22;551;48.524;9.056;2022-12-29T08:06:41;11.50;1.00
506;DHT22;551;48.524;9.056;2022-12-29T08:09:08;11.50;1.00
506;DHT22;551;48.524;9.056;2022-12-29T08:11:34;11.60;1.00
506;DHT22;551;48.524;9.056;2022-12-29T08:13:59;11.60;1.00
506;DHT22;551;48.524;9.056;2022-12-29T08:16:25;11.60;1.00
506;DHT22;551;48.524;9.056;2022-12-29T08:18:50;11.60;1.00
506;DHT22;551;48.524;9.056;2022-12-29T08:21:16;11.70;1.00
506;DHT22;551;48.524;9.056;2022-12-29T08:23:41;11.70;1.00
506;DHT22;551;48.524;9.056;2022-12-29T08:26:07;11.70;1.00
506;DHT22;551;48.524;9.056;2022-12-29T08:28:32;11.80;1.00
506;DHT22;551;48.524;9.056;2022-12-29T08:31:00;11.90;1.00
506;DHT22;551;48.524;9.056;2022-12-29T08:33:27;11.90;1.00
506;DHT22;551;48.524;9.056;2022-12-29T08:35:58;11.90;1.00
506;DHT22;551;48.524;9.056;2022-12-29T08:38:23;12.00;1.00
506;DHT22;551;48.524;9.056;2022-12-29T08:40:49;12.10;1.00
506;DHT22;551;48.524;9.056;2022-12-29T08:43:16;12.20;1.00
506;DHT22;551;48.524;9.056;2022-12-29T08:45:41;12.20;1.00
506;DHT22;551;48.524;9.056;2022-12-29T08:48:07;12.20;1.00
506;DHT22;551;48.524;9.056;2022-12-29T08:50:33;12.20;1.00
506;DHT22;551;48.524;9.056;2022-12-29T08:52:58;12.20;1.00
506;DHT22;551;48.524;9.056;2022-12-29T08:55:23;12.30;1.00
506;DHT22;551;48.524;9.056;2022-12-29T08:57:49;12.20;1.00
506;DHT22;551;48.524;9.056;2022-12-29T09:00:15;12.20;1.00
506;DHT22;551;48.524;9.056;2022-12-29T09:02:40;12.30;1.00
506;DHT22;551;48.524;9.056;2022-12-29T09:05:08;12.30;1.00
506;DHT22;551;48.524;9.056;2022-12-29T09:07:33;12.30;1.00
506;DHT22;551;48.524;9.056;2022-12-29T09:09:59;12.30;1.00
506;DHT22;551;48.524;9.056;2022-12-29T09:12:24;12.30;1.00
506;DHT22;551;48.524;9.056;2022-12-29T09:14:50;12.40;1.00
506;DHT22;551;48.524;9.056;2022-12-29T09:17:16;12.30;1.00
506;DHT22;551;48.524;9.056;2022-12-29T09:20:00;12.30;1.00
506;DHT22;551;48.524;9.056;2022-12-29T09:22:25;12.40;1.00
506;DHT22;551;48.524;9.056;2022-12-29T09:24:51;12.40;1.00
506;DHT22;551;48.524;9.056;2022-12-29T09:27:16;12.40;1.00
506;DHT22;551;48.524;9.056;2022-12-29T09:29:42;12.30;1.00
506;DHT22;551;48.524;9.056;2022-12-29T09:32:07;12.40;1.00
506;DHT22;551;48.524;9.056;2022-12-29T09:34:33;12.40;1.00
506;DHT22;551;48.524;9.056;2022-12-29T09:36:58;12.40;1.00
506;DHT22;551;48.524;9.056;2022-12-29T09:39:24;12.40;1.00
506;DHT22;551;48.524;9.056;2022-12-29T09:42:07;12.50;1.00
506;DHT22;551;48.524;9.056;2022-12-29T09:47:30;12.70;1.00
506;DHT22;551;48.524;9.056;2022-12-29T09:50:03;12.70;1.00
506;DHT22;551;48.524;9.056;2022-12-29T09:52:34;12.70;1.00
506;DHT22;551;48.524;9.056;2022-12-29T09:55:26;12.60;1.00
506;DHT22;551;48.524;9.056;2022-12-29T09:58:05;12.60;1.00
506;DHT22;551;48.524;9.056;2022-12-29T10:03:27;12.60;1.00
506;DHT22;551;48.524;9.056;2022-12-29T10:06:06;12.70;1.00
506;DHT22;551;48.524;9.056;2022-12-29T10:11:54;12.60;1.00
506;DHT22;551;48.524;9.056;2022-12-29T10:20:21;12.50;1.00
506;DHT22;551;48.524;9.056;2022-12-29T10:25:41;12.50;1.00
506;DHT22;551;48.524;9.056;2022-12-29T10:28:35;12.50;1.00
506;DHT22;551;48.524;9.056;2022-12-29T10:31:05;12.50;1.00
506;DHT22;551;48.524;9.056;2022-12-29T10:33:37;12.50;1.00
506;DHT22;551;48.524;9.056;2022-12-29T10:36:16;12.50;1.00
506;DHT22;551;48.524;9.056;2022-12-29T10:41:53;12.50;1.00
506;DHT22;551;48.524;9.056;2022-12-29T10:44:20;12.50;1.00
506;DHT22;551;48.524;9.056;2022-12-29T10:46:56;12.50;1.00
506;DHT22;551;48.524;9.056;2022-12-29T10:49:25;12.50;1.00
506;DHT22;551;48.524;9.056;2022-12-29T10:51:54;12.50;1.00
506;DHT22;551;48.524;9.056;2022-12-29T10:57:01;12.50;1.00
506;DHT22;551;48.524;9.056;2022-12-29T10:59:33;12.50;1.00
506;DHT22;551;48.524;9.056;2022-12-29T11:07:12;12.40;1.00
506;DHT22;551;48.524;9.056;2022-12-29T11:09:41;12.50;1.00
506;DHT22;551;48.524;9.056;2022-12-29T11:12:23;12.60;1.00
506;DHT22;551;48.524;9.056;2022-12-29T11:15:12;12.60;1.00
506;DHT22;551;48.524;9.056;2022-12-29T11:17:52;12.70;1.00
506;DHT22;551;48.524;9.056;2022-12-29T11:20:38;12.80;1.00
506;DHT22;551;48.524;9.056;2022-12-29T11:23:20;12.80;1.00
506;DHT22;551;48.524;9.056;2022-12-29T11:25:46;12.90;1.00
506;DHT22;551;48.524;9.056;2022-12-29T11:28:28;12.80;1.00
506;DHT22;551;48.524;9.056;2022-12-29T11:31:00;12.80;1.00
506;DHT22;551;48.524;9.056;2022-12-29T11:33:28;12.70;1.00
506;DHT22;551;48.524;9.056;2022-12-29T11:35:58;12.60;1.00
506;DHT22;551;48.524;9.056;2022-12-29T11:38:34;12.40;1.00
506;DHT22;551;48.524;9.056;2022-12-29T11:41:01;12.40;1.00
506;DHT22;551;48.524;9.056;2022-12-29T11:43:32;12.70;1.00
506;DHT22;551;48.524;9.056;2022-12-29T11:46:00;12.90;1.00
506;DHT22;551;48.524;9.056;2022-12-29T11:48:31;13.70;1.00
506;DHT22;551;48.524;9.056;2022-12-29T11:50:58;14.20;1.00
506;DHT22;551;48.524;9.056;2022-12-29T11:53:46;14.40;1.00
506;DHT22;551;48.524;9.056;2022-12-29T11:56:15;14.30;1.00
506;DHT22;551;48.524;9.056;2022-12-29T11:58:41;14.10;1.00
506;DHT22;551;48.524;9.056;2022-12-29T12:01:17;14.00;1.00
506;DHT22;551;48.524;9.056;2022-12-29T12:04:05;13.80;1.00
506;DHT22;551;48.524;9.056;2022-12-29T12:06:34;13.30;1.00
506;DHT22;551;48.524;9.056;2022-12-29T12:09:07;13.10;1.00
506;DHT22;551;48.524;9.056;2022-12-29T12:11:39;12.90;1.00
506;DHT22;551;48.524;9.056;2022-12-29T12:16:55;12.60;1.00
506;DHT22;551;48.524;9.056;2022-12-29T12:22:27;12.50;1.00
506;DHT22;551;48.524;9.056;2022-12-29T12:25:03;12.50;1.00
506;DHT22;551;48.524;9.056;2022-12-29T12:28:53;12.50;1.00
506;DHT22;551;48.524;9.056;2022-12-29T12:30:50;12.50;1.00
506;DHT22;551;48.524;9.056;2022-12-29T12:33:33;12.50;1.00
506;DHT22;551;48.524;9.056;2022-12-29T12:38:54;12.40;1.00
506;DHT22;551;48.524;9.056;2022-12-29T12:53:08;12.60;1.00
506;DHT22;551;48.524;9.056;2022-12-29T12:55:41;12.70;1.00
506;DHT22;551;48.524;9.056;2022-12-29T12:58:27;12.80;1.00
506;DHT22;551;48.524;9.056;2022-12-29T13:09:37;12.60;1.00
506;DHT22;551;48.524;9.056;2022-12-29T13:12:30;12.70;1.00
506;DHT22;551;48.524;9.056;2022-12-29T13:18:06;13.00;1.00
506;DHT22;551;48.524;9.056;2022-12-29T13:20:54;13.30;1.00
506;DHT22;551;48.524;9.056;2022-12-29T13:24:21;13.40;1.00
506;DHT22;551;48.524;9.056;2022-12-29T13:26:23;13.50;1.00
506;DHT22;551;48.524;9.056;2022-12-29T13:29:04;13.50;1.00
506;DHT22;551;48.524;9.056;2022-12-29T13:31:52;13.50;1.00
506;DHT22;551;48.524;9.056;2022-12-29T13:36:56;13.50;1.00
506;DHT22;551;48.524;9.056;2022-12-29T13:39:30;13.30;1.00
506;DHT22;551;48.524;9.056;2022-12-29T13:41:58;13.50;1.00
506;DHT22;551;48.524;9.056;2022-12-29T13:45:00;13.70;1.00
506;DHT22;551;48.524;9.056;2022-12-29T13:47:40;13.80;1.00
506;DHT22;551;48.524;9.056;2022-12-29T13:50:22;13.80;1.00
506;DHT22;551;48.524;9.056;2022-12-29T13:55:55;13.80;1.00
506;DHT22;551;48.524;9.056;2022-12-29T13:58:36;14.00;1.00
506;DHT22;551;48.524;9.056;2022-12-29T14:01:10;14.10;1.00
506;DHT22;551;48.524;9.056;2022-12-29T14:03:54;14.60;1.00
506;DHT22;551;48.524;9.056;2022-12-29T14:08:52;14.60;1.00
506;DHT22;551;48.524;9.056;2022-12-29T14:11:21;14.40;1.00
506;DHT22;551;48.524;9.056;2022-12-29T14:13:47;14.20;1.00
506;DHT22;551;48.524;9.056;2022-12-29T14:16:26;14.10;1.00
506;DHT22;551;48.524;9.056;2022-12-29T14:18:53;14.00;1.00
506;DHT22;551;48.524;9.056;2022-12-29T14:21:21;14.20;1.00
506;DHT22;551;48.524;9.056;2022-12-29T14:23:50;14.00;1.00
506;DHT22;551;48.524;9.056;2022-12-29T14:28:44;13.60;1.00
506;DHT22;551;48.524;9.056;2022-12-29T14:39:39;13.00;1.00
506;DHT22;551;48.524;9.056;2022-12-29T14:44:46;12.80;1.00
506;DHT22;551;48.524;9.056;2022-12-29T14:53:04;12.50;1.00
506;DHT22;551;48.524;9.056;2022-12-29T14:58:05;12.40;1.00
506;DHT22;551;48.524;9.056;2022-12-29T15:00:34;12.40;1.00
506;DHT22;551;48.524;9.056;2022-12-29T15:03:07;12.30;1.00
506;DHT22;551;48.524;9.056;2022-12-29T15:05:46;12.20;1.00
506;DHT22;551;48.524;9.056;2022-12-29T15:08:17;12.20;1.00
506;DHT22;551;48.524;9.056;2022-12-29T15:10:50;12.20;1.00
506;DHT22;551;48.524;9.056;2022-12-29T15:13:22;12.10;1.00
506;DHT22;551;48.524;9.056;2022-12-29T15:15:48;12.10;1.00
506;DHT22;551;48.524;9.056;2022-12-29T15:18:26;12.10;1.00
506;DHT22;551;48.524;9.056;2022-12-29T15:20:57;12.00;1.00
506;DHT22;551;48.524;9.056;2022-12-29T15:23:23;12.00;1.00
506;DHT22;551;48.524;9.056;2022-12-29T15:25:57;12.00;1.00
506;DHT22;551;48.524;9.056;2022-12-29T15:28:24;12.00;1.00
506;DHT22;551;48.524;9.056;2022-12-29T15:31:19;11.90;1.00
506;DHT22;551;48.524;9.056;2022-12-29T15:33:52;12.00;1.00
506;DHT22;551;48.524;9.056;2022-12-29T15:36:21;12.00;1.00
506;DHT22;551;48.524;9.056;2022-12-29T15:38:48;12.00;1.00
506;DHT22;551;48.524;9.056;2022-12-29T15:41:39;11.90;1.00
506;DHT22;551;48.524;9.056;2022-12-29T15:44:41;11.90;1.00
506;DHT22;551;48.524;9.056;2022-12-29T15:47:22;11.90;1.00
506;DHT22;551;48.524;9.056;2022-12-29T15:50:02;11.90;1.00
506;DHT22;551;48.524;9.056;2022-12-29T15:52:30;11.90;1.00
506;DHT22;551;48.524;9.056;2022-12-29T15:54:58;11.80;1.00
506;DHT22;551;48.524;9.056;2022-12-29T15:57:26;11.70;1.00
506;DHT22;551;48.524;9.056;2022-12-29T15:59:52;11.80;1.00
506;DHT22;551;48.524;9.056;2022-12-29T16:02:21;11.80;1.00
506;DHT22;551;48.524;9.056;2022-12-29T16:04:48;11.70;1.00
506;DHT22;551;48.524;9.056;2022-12-29T16:07:28;11.70;1.00
506;DHT22;551;48.524;9.056;2022-12-29T16:10:03;11.70;1.00
506;DHT22;551;48.524;9.056;2022-12-29T16:12:32;11.80;1.00
506;DHT22;551;48.524;9.056;2022-12-29T16:15:00;11.80;1.00
506;DHT22;551;48.524;9.056;2022-12-29T16:17:30;11.80;1.00
506;DHT22;551;48.524;9.056;2022-12-29T16:20:00;11.80;1.00
506;DHT22;551;48.524;9.056;2022-12-29T16:22:36;11.80;1.00
506;DHT22;551;48.524;9.056;2022-12-29T16:25:11;11.80;1.00
506;DHT22;551;48.524;9.056;2022-12-29T16:27:43;11.80;1.00
506;DHT22;551;48.524;9.056;2022-12-29T16:30:29;11.80;1.00
506;DHT22;551;48.524;9.056;2022-12-29T16:32:58;11.80;1.00
506;DHT22;551;48.524;9.056;2022-12-29T16:35:28;11.70;1.00
506;DHT22;551;48.524;9.056;2022-12-29T16:38:14;11.70;1.00
506;DHT22;551;48.524;9.056;2022-12-29T16:40:50;11.80;1.00
506;DHT22;551;48.524;9.056;2022-12-29T16:43:30;11.70;1.00
506;DHT22;551;48.524;9.056;2022-12-29T16:48:27;11.70;1.00
506;DHT22;551;48.524;9.056;2022-12-29T16:51:02;11.60;1.00
506;DHT22;551;48.524;9.056;2022-12-29T16:53:38;11.50;1.00
506;DHT22;551;48.524;9.056;2022-12-29T16:56:15;11.40;1.00
506;DHT22;551;48.524;9.056;2022-12-29T16:58:46;11.30;1.00
506;DHT22;551;48.524;9.056;2022-12-29T17:01:12;11.30;1.00
506;DHT22;551;48.524;9.056;2022-12-29T17:03:51;11.20;1.00
506;DHT22;551;48.524;9.056;2022-12-29T17:06:20;11.20;1.00
506;DHT22;551;48.524;9.056;2022-12-29T17:08:47;11.10;1.00
506;DHT22;551;48.524;9.056;2022-12-29T17:11:27;10.90;1.00
506;DHT22;551;48.524;9.056;2022-12-29T17:14:26;10.80;1.00
506;DHT22;551;48.524;9.056;2022-12-29T17:16:54;10.60;1.00
506;DHT22;551;48.524;9.056;2022-12-29T17:19:23;10.50;1.00
506;DHT22;551;48.524;9.056;2022-12-29T17:21:51;10.40;1.00
506;DHT22;551;48.524;9.056;2022-12-29T17:24:18;10.40;1.00
506;DHT22;551;48.524;9.056;2022-12-29T17:26:47;10.20;1.00
506;DHT22;551;48.524;9.056;2022-12-29T17:29:33;10.00;1.00
506;DHT22;551;48.524;9.056;2022-12-29T17:32:06;10.00;1.00
506;DHT22;551;48.524;9.056;2022-12-29T17:34:34;9.90;1.00
506;DHT22;551;48.524;9.056;2022-12-29T17:37:00;10.00;1.00
506;DHT22;551;48.524;9.056;2022-12-29T17:39:25;10.10;1.00
506;DHT22;551;48.524;9.056;2022-12-29T17:41:51;10.10;1.00
506;DHT22;551;48.524;9.056;2022-12-29T17:44:18;10.00;1.00
506;DHT22;551;48.524;9.056;2022-12-29T17:46:45;9.90;1.00
506;DHT22;551;48.524;9.056;2022-12-29T17:49:12;9.70;1.00
506;DHT22;551;48.524;9.056;2022-12-29T17:51:39;9.70;1.00
506;DHT22;551;48.524;9.056;2022-12-29T17:54:05;9.70;1.00
506;DHT22;551;48.524;9.056;2022-12-29T17:56:30;9.70;1.00
506;DHT22;551;48.524;9.056;2022-12-29T17:58:56;9.70;1.00
506;DHT22;551;48.524;9.056;2022-12-29T18:01:21;9.60;1.00
506;DHT22;551;48.524;9.056;2022-12-29T18:03:50;9.60;1.00
506;DHT22;551;48.524;9.056;2022-12-29T18:06:16;9.60;1.00
506;DHT22;551;48.524;9.056;2022-12-29T18:08:42;9.60;1.00
506;DHT22;551;48.524;9.056;2022-12-29T18:11:21;9.60;1.00
506;DHT22;551;48.524;9.056;2022-12-29T18:13:47;9.60;1.00
506;DHT22;551;48.524;9.056;2022-12-29T18:16:13;9.50;1.00
506;DHT22;551;48.524;9.056;2022-12-29T18:18:39;9.50;1.00
506;DHT22;551;48.524;9.056;2022-12-29T18:21:04;9.50;1.00
506;DHT22;551;48.524;9.056;2022-12-29T18:23:32;9.50;1.00
506;DHT22;551;48.524;9.056;2022-12-29T18:26:05;9.50;1.00
506;DHT22;551;48.524;9.056;2022-12-29T18:28:32;9.50;1.00
506;DHT22;551;48.524;9.056;2022-12-29T18:31:00;9.60;1.00
506;DHT22;551;48.524;9.056;2022-12-29T18:33:26;9.70;1.00
506;DHT22;551;48.524;9.056;2022-12-29T18:36:00;9.60;1.00
506;DHT22;551;48.524;9.056;2022-12-29T18:38:30;9.60;1.00
506;DHT22;551;48.524;9.056;2022-12-29T18:40:57;9.60;1.00
506;DHT22;551;48.524;9.056;2022-12-29T18:43:22;9.60;1.00
506;DHT22;551;48.524;9.056;2022-12-29T18:45:48;9.70;1.00
506;DHT22;551;48.524;9.056;2022-12-29T18:48:16;9.70;1.00
506;DHT22;551;48.524;9.056;2022-12-29T18:50:42;9.70;1.00
506;DHT22;551;48.524;9.056;2022-12-29T18:53:15;9.70;1.00
506;DHT22;551;48.524;9.056;2022-12-29T18:55:41;9.70;1.00
506;DHT22;551;48.524;9.056;2022-12-29T18:58:06;9.70;1.00
506;DHT22;551;48.524;9.056;2022-12-29T19:00:32;9.80;1.00
506;DHT22;551;48.524;9.056;2022-12-29T19:02:57;9.70;1.00
506;DHT22;551;48.524;9.056;2022-12-29T19:05:27;9.70;1.00
506;DHT22;551;48.524;9.056;2022-12-29T19:07:53;9.70;1.00
506;DHT22;551;48.524;9.056;2022-12-29T19:10:20;9.70;1.00
506;DHT22;551;48.524;9.056;2022-12-29T19:12:47;9.70;1.00
506;DHT22;551;48.524;9.056;2022-12-29T19:15:35;9.70;1.00
506;DHT22;551;48.524;9.056;2022-12-29T19:18:05;9.70;1.00
506;DHT22;551;48.524;9.056;2022-12-29T19:20:39;9.70;1.00
506;DHT22;551;48.524;9.056;2022-12-29T19:23:10;9.70;1.00
506;DHT22;551;48.524;9.056;2022-12-29T19:25:36;9.70;1.00
506;DHT22;551;48.524;9.056;2022-12-29T19:28:04;9.80;1.00
506;DHT22;551;48.524;9.056;2022-12-29T19:30:30;9.90;1.00
506;DHT22;551;48.524;9.056;2022-12-29T19:32:58;9.90;1.00
506;DHT22;551;48.524;9.056;2022-12-29T19:35:26;9.80;1.00
506;DHT22;551;48.524;9.056;2022-12-29T19:37:52;9.90;1.00